Time;durP1;ratioP1;P1;durP2;ratioP2;P2;SDS_P1;SDS_P2;PMS_P1;PMS_P2;Temp;Humidity;BMP_temperature;BMP_pressure;BME280_temperature;BME280_humidity;BME280_pressure;Samples;Min_cycle;Max_cycle;Signal;HPM_P1;HPM_P2
2024/03/22 00:01:56;0.00;0.00;0.62;0.00;0.00;0.62;3.70;2.23;;;23.90;24.10;;;;;;2258738;61;20356;-64
2024/03/22 00:04:22;0.00;0.00;0.62;0.00;0.00;0.62;2.90;2.23;;;23.90;24.60;;;;;;2258908;61;20544;-64
2024/03/22 00:06:50;0.00;0.00;0.62;0.00;0.00;0.62;3.40;2.80;;;23.90;24.10;;;;;;2259263;61;20797;-64
2024/03/22 00:09:17;0.00;0.00;0.62;0.00;0.00;0.62;2.90;2.40;;;23.90;24.10;;;;;;2259000;61;20860;-64
2024/03/22 00:11:44;0.00;0.00;0.62;0.00;0.00;0.62;2.57;2.07;;;23.90;24.10;;;;;;2259036;61;20369;-64
2024/03/22 00:14:11;0.00;0.00;0.62;0.00;0.00;0.62;2.97;2.60;;;23.90;24.10;;;;;;2259030;61;20368;-64
2024/03/22 00:16:38;0.00;0.00;0.62;0.00;0.00;0.62;3.50;2.43;;;23.90;24.10;;;;;;2258738;61;20893;-64
2024/03/22 00:19:05;0.00;0.00;0.62;0.00;0.00;0.62;2.83;1.93;;;23.90;24.10;;;;;;2259243;61;20354;-64
2024/03/22 00:21:31;0.00;0.00;0.62;0.00;0.00;0.62;3.20;2.50;;;23.90;24.10;;;;;;2258861;61;20500;-64
2024/03/22 00:23:58;0.00;0.00;0.62;0.00;0.00;0.62;2.70;2.30;;;23.90;24.10;;;;;;2259104;61;20400;-64
2024/03/22 00:26:24;0.00;0.00;0.62;0.00;0.00;0.62;3.10;2.47;;;23.90;24.20;;;;;;2259060;61;20374;-64
2024/03/22 00:28:50;0.00;0.00;0.62;0.00;0.00;0.62;3.23;2.53;;;23.90;24.10;;;;;;2258983;61;20802;-64
2024/03/22 00:31:18;0.00;0.00;0.62;0.00;0.00;0.62;3.20;2.50;;;23.90;24.10;;;;;;2259070;61;20398;-64
2024/03/22 00:33:44;0.00;0.00;0.62;0.00;0.00;0.62;3.23;2.70;;;23.90;24.10;;;;;;2259258;61;20351;-64
2024/03/22 00:36:12;0.00;0.00;0.62;0.00;0.00;0.62;3.50;2.40;;;23.90;24.10;;;;;;2259239;61;20405;-64
2024/03/22 00:38:38;0.00;0.00;0.62;0.00;0.00;0.62;4.77;2.87;;;23.90;24.20;;;;;;2259051;61;20366;-64
2024/03/22 00:41:04;0.00;0.00;0.62;0.00;0.00;0.62;3.70;3.40;;;23.90;24.20;;;;;;2259084;61;20595;-64
2024/03/22 00:43:30;0.00;0.00;0.62;0.00;0.00;0.62;3.50;3.07;;;23.90;24.10;;;;;;2258758;61;20804;-64
2024/03/22 00:45:58;0.00;0.00;0.62;0.00;0.00;0.62;4.00;2.60;;;23.90;24.10;;;;;;2259054;61;20443;-64
2024/03/22 00:48:24;0.00;0.00;0.62;0.00;0.00;0.62;3.70;2.53;;;23.90;24.20;;;;;;2258800;61;20922;-64
2024/03/22 00:50:50;0.00;0.00;0.62;0.00;0.00;0.62;3.97;3.13;;;23.90;24.10;;;;;;2258944;61;20393;-64
2024/03/22 00:53:18;0.00;0.00;0.62;0.00;0.00;0.62;4.50;2.97;;;23.90;24.20;;;;;;2259154;61;20362;-64
2024/03/22 00:55:44;0.00;0.00;0.62;0.00;0.00;0.62;5.83;3.47;;;23.90;24.10;;;;;;2258772;61;20374;-64
2024/03/22 00:58:10;0.00;0.00;0.62;0.00;0.00;0.62;3.60;2.90;;;23.90;24.70;;;;;;2258894;61;20656;-64
2024/03/22 01:00:37;0.00;0.00;0.62;0.00;0.00;0.62;4.17;3.40;;;23.90;24.10;;;;;;2259214;61;20405;-64
2024/03/22 01:03:04;0.00;0.00;0.62;0.00;0.00;0.62;3.97;3.00;;;23.90;24.10;;;;;;2258527;61;20407;-64
2024/03/22 01:05:30;0.00;0.00;0.62;0.00;0.00;0.62;4.50;3.70;;;23.90;24.10;;;;;;2259173;61;20391;-64
2024/03/22 01:07:56;0.00;0.00;0.62;0.00;0.00;0.62;3.37;3.07;;;23.90;24.10;;;;;;2259003;61;20419;-64
2024/03/22 01:10:24;0.00;0.00;0.62;0.00;0.00;0.62;4.63;4.00;;;23.90;24.10;;;;;;2259033;61;20362;-64
2024/03/22 01:12:50;0.00;0.00;0.62;0.00;0.00;0.62;4.77;4.27;;;23.90;24.20;;;;;;2259090;61;20366;-64
2024/03/22 01:15:16;0.00;0.00;0.62;0.00;0.00;0.62;4.27;3.83;;;23.90;24.10;;;;;;2259232;61;20507;-64
2024/03/22 01:17:42;0.00;0.00;0.62;0.00;0.00;0.62;4.90;4.40;;;23.90;24.10;;;;;;2258744;61;20460;-64
2024/03/22 01:20:10;0.00;0.00;0.62;0.00;0.00;0.62;4.63;4.13;;;23.80;24.00;;;;;;2258535;61;20408;-64
2024/03/22 01:22:37;0.00;0.00;0.62;0.00;0.00;0.62;4.10;3.70;;;23.80;24.00;;;;;;2259037;61;20592;-64
2024/03/22 01:25:03;0.00;0.00;0.62;0.00;0.00;0.62;3.80;3.40;;;23.90;24.10;;;;;;2258601;61;20386;-64
2024/03/22 01:27:31;0.00;0.00;0.62;0.00;0.00;0.62;6.50;3.97;;;23.80;24.00;;;;;;2259051;61;20443;-64
2024/03/22 01:29:57;0.00;0.00;0.62;0.00;0.00;0.62;4.40;3.47;;;23.80;24.00;;;;;;2258877;61;20366;-64
2024/03/22 01:32:23;0.00;0.00;0.62;0.00;0.00;0.62;5.23;4.20;;;23.80;24.00;;;;;;2258662;61;20350;-64
2024/03/22 01:34:49;0.00;0.00;0.62;0.00;0.00;0.62;5.53;3.60;;;23.80;24.00;;;;;;2259131;61;20350;-64
2024/03/22 01:37:16;0.00;0.00;0.62;0.00;0.00;0.62;5.50;4.50;;;23.80;24.10;;;;;;2258927;61;20376;-64
2024/03/22 01:39:42;0.00;0.00;0.62;0.00;0.00;0.62;5.77;4.20;;;23.80;24.00;;;;;;2258974;61;20353;-64
2024/03/22 01:42:08;0.00;0.00;0.62;0.00;0.00;0.62;4.90;3.90;;;23.80;24.00;;;;;;2259638;61;20753;-64
2024/03/22 01:44:36;0.00;0.00;0.62;0.00;0.00;0.62;6.03;4.30;;;23.80;24.00;;;;;;2259773;61;20389;-64
2024/03/22 01:47:03;0.00;0.00;0.62;0.00;0.00;0.62;4.93;4.43;;;23.80;24.10;;;;;;2259176;61;20435;-64
2024/03/22 01:49:29;0.00;0.00;0.62;0.00;0.00;0.62;5.37;4.30;;;23.80;24.10;;;;;;2259618;61;20361;-64
2024/03/22 01:51:56;0.00;0.00;0.62;0.00;0.00;0.62;4.97;4.43;;;23.80;24.10;;;;;;2259563;61;20365;-64
2024/03/22 01:54:22;0.00;0.00;0.62;0.00;0.00;0.62;4.83;3.80;;;23.80;24.10;;;;;;2259418;61;20354;-64
2024/03/22 01:56:48;0.00;0.00;0.62;0.00;0.00;0.62;4.67;4.27;;;23.80;24.00;;;;;;2259671;61;20891;-64
2024/03/22 01:59:15;0.00;0.00;0.62;0.00;0.00;0.62;5.00;4.50;;;23.80;24.60;;;;;;2259191;61;20358;-64
2024/03/22 02:01:43;0.00;0.00;0.62;0.00;0.00;0.62;5.97;4.70;;;23.80;24.10;;;;;;2258829;61;20353;-64
2024/03/22 02:04:10;0.00;0.00;0.62;0.00;0.00;0.62;5.30;4.53;;;23.80;24.10;;;;;;2259377;61;20801;-64
2024/03/22 02:06:36;0.00;0.00;0.62;0.00;0.00;0.62;4.80;3.87;;;23.80;24.10;;;;;;2259535;61;20518;-64
2024/03/22 02:09:04;0.00;0.00;0.62;0.00;0.00;0.62;4.87;4.20;;;23.80;24.10;;;;;;2259350;61;20361;-64
2024/03/22 02:11:31;0.00;0.00;0.62;0.00;0.00;0.62;5.43;4.60;;;23.80;24.10;;;;;;2259469;61;20381;-64
2024/03/22 02:13:57;0.00;0.00;0.62;0.00;0.00;0.62;4.70;4.07;;;23.80;24.10;;;;;;2260780;61;20373;-64
2024/03/22 02:16:24;0.00;0.00;0.62;0.00;0.00;0.62;4.67;4.23;;;23.80;24.10;;;;;;2263066;61;20371;-64
2024/03/22 02:18:51;0.00;0.00;0.62;0.00;0.00;0.62;5.60;4.80;;;23.80;24.10;;;;;;2261412;61;20464;-64
2024/03/22 02:21:18;0.00;0.00;0.62;0.00;0.00;0.62;5.13;4.27;;;23.80;24.10;;;;;;2259235;61;20373;-64
2024/03/22 02:23:45;0.00;0.00;0.62;0.00;0.00;0.62;4.30;3.90;;;23.80;24.10;;;;;;2259270;61;20353;-64
2024/03/22 02:26:11;0.00;0.00;0.62;0.00;0.00;0.62;5.23;3.97;;;23.80;24.20;;;;;;2259423;61;20887;-64
2024/03/22 02:28:37;0.00;0.00;0.62;0.00;0.00;0.62;4.70;4.13;;;23.80;24.20;;;;;;2259552;61;20358;-64
2024/03/22 02:31:04;0.00;0.00;0.62;0.00;0.00;0.62;5.47;3.90;;;23.80;24.10;;;;;;2259152;61;20396;-64
2024/03/22 02:33:31;0.00;0.00;0.62;0.00;0.00;0.62;6.10;4.90;;;23.80;24.20;;;;;;2259553;61;20354;-64
2024/03/22 02:35:57;0.00;0.00;0.62;0.00;0.00;0.62;5.57;4.40;;;23.80;24.20;;;;;;2259291;61;20499;-64
2024/03/22 02:38:23;0.00;0.00;0.62;0.00;0.00;0.62;5.30;4.57;;;23.80;24.20;;;;;;2259254;61;20868;-64
2024/03/22 02:40:52;0.00;0.00;0.62;0.00;0.00;0.62;6.13;3.83;;;23.80;24.20;;;;;;2259439;61;20864;-64
2024/03/22 02:43:20;0.00;0.00;0.62;0.00;0.00;0.62;4.00;3.40;;;23.80;24.20;;;;;;2259638;61;20365;-64
2024/03/22 02:45:47;0.00;0.00;0.62;0.00;0.00;0.62;5.10;3.93;;;23.80;24.20;;;;;;2259108;61;20845;-64
2024/03/22 02:48:14;0.00;0.00;0.62;0.00;0.00;0.62;6.27;4.57;;;23.80;24.20;;;;;;2259329;61;20774;-64
2024/03/22 02:50:40;0.00;0.00;0.62;0.00;0.00;0.62;5.10;4.60;;;23.80;24.20;;;;;;2259316;61;20361;-64
2024/03/22 02:53:07;0.00;0.00;0.62;0.00;0.00;0.62;5.63;3.70;;;23.80;24.20;;;;;;2261621;61;20891;-64
2024/03/22 02:55:37;0.00;0.00;0.62;0.00;0.00;0.62;5.00;4.03;;;23.80;24.20;;;;;;2263473;61;20352;-64
2024/03/22 02:58:05;0.00;0.00;0.62;0.00;0.00;0.62;5.13;3.73;;;23.80;24.20;;;;;;2261477;61;20360;-64
2024/03/22 03:00:35;0.00;0.00;0.62;0.00;0.00;0.62;4.30;3.90;;;23.80;24.20;;;;;;2261550;61;20361;-64
2024/03/22 03:03:01;0.00;0.00;0.62;0.00;0.00;0.62;5.00;4.37;;;23.80;24.20;;;;;;2262564;61;20967;-64
2024/03/22 03:05:27;0.00;0.00;0.62;0.00;0.00;0.62;5.63;4.50;;;23.80;24.20;;;;;;2263401;61;20377;-64
2024/03/22 03:07:53;0.00;0.00;0.62;0.00;0.00;0.62;5.13;4.60;;;23.80;24.20;;;;;;2263262;61;20867;-64
2024/03/22 03:10:19;0.00;0.00;0.62;0.00;0.00;0.62;5.33;4.60;;;23.70;24.10;;;;;;2263019;61;20353;-64
2024/03/22 03:12:46;0.00;0.00;0.62;0.00;0.00;0.62;5.07;4.30;;;23.70;24.10;;;;;;2263120;61;20891;-64
2024/03/22 03:15:13;0.00;0.00;0.62;0.00;0.00;0.62;5.20;4.70;;;23.80;24.70;;;;;;2263351;61;20364;-64
2024/03/22 03:17:39;0.00;0.00;0.62;0.00;0.00;0.62;5.60;4.93;;;23.70;24.10;;;;;;2263415;61;20974;-64
2024/03/22 03:20:07;0.00;0.00;0.62;0.00;0.00;0.62;5.10;4.60;;;23.70;24.10;;;;;;2263742;61;20387;-64
2024/03/22 03:22:35;0.00;0.00;0.62;0.00;0.00;0.62;6.23;5.37;;;23.70;24.10;;;;;;2263619;61;20932;-64
2024/03/22 03:25:01;0.00;0.00;0.62;0.00;0.00;0.62;5.13;4.47;;;23.70;24.20;;;;;;2263613;61;20380;-64
2024/03/22 03:27:27;0.00;0.00;0.62;0.00;0.00;0.62;6.27;5.37;;;23.70;24.10;;;;;;2263592;61;20369;-64
2024/03/22 03:29:53;0.00;0.00;0.62;0.00;0.00;0.62;6.20;4.97;;;23.70;24.20;;;;;;2263688;61;20438;-64
2024/03/22 03:32:21;0.00;0.00;0.62;0.00;0.00;0.62;7.50;4.80;;;23.70;24.20;;;;;;2263413;61;20353;-64
2024/03/22 03:34:47;0.00;0.00;0.62;0.00;0.00;0.62;6.50;5.23;;;23.70;24.10;;;;;;2263523;61;20414;-64
2024/03/22 03:37:13;0.00;0.00;0.62;0.00;0.00;0.62;6.37;5.57;;;23.70;24.10;;;;;;2263944;61;20384;-64
2024/03/22 03:39:40;0.00;0.00;0.62;0.00;0.00;0.62;6.00;5.40;;;23.70;24.10;;;;;;2263722;61;20396;-64
2024/03/22 03:42:06;0.00;0.00;0.62;0.00;0.00;0.62;6.50;5.57;;;23.70;24.20;;;;;;2263471;61;20396;-64
2024/03/22 03:44:33;0.00;0.00;0.62;0.00;0.00;0.62;6.97;6.27;;;23.70;24.10;;;;;;2263446;61;20392;-64
2024/03/22 03:47:01;0.00;0.00;0.62;0.00;0.00;0.62;6.93;5.87;;;23.70;24.70;;;;;;2263271;61;20799;-64
2024/03/22 03:49:29;0.00;0.00;0.62;0.00;0.00;0.62;7.23;5.77;;;23.70;24.20;;;;;;2263629;61;20928;-64
2024/03/22 03:51:55;0.00;0.00;0.62;0.00;0.00;0.62;7.00;5.63;;;23.70;24.20;;;;;;2263455;61;20856;-64
2024/03/22 03:54:21;0.00;0.00;0.62;0.00;0.00;0.62;7.10;5.80;;;23.70;24.20;;;;;;2263384;61;20353;-64
2024/03/22 03:56:47;0.00;0.00;0.62;0.00;0.00;0.62;7.20;6.37;;;23.70;24.20;;;;;;2263605;61;20373;-64
2024/03/22 03:59:13;0.00;0.00;0.62;0.00;0.00;0.62;8.33;6.37;;;23.70;24.20;;;;;;2263600;61;20376;-64
2024/03/22 04:01:39;0.00;0.00;0.62;0.00;0.00;0.62;7.00;6.30;;;23.70;24.20;;;;;;2262768;61;20349;-64
2024/03/22 04:04:05;0.00;0.00;0.62;0.00;0.00;0.62;7.30;6.07;;;23.70;24.20;;;;;;2263294;61;20357;-64
2024/03/22 04:06:34;0.00;0.00;0.62;0.00;0.00;0.62;6.50;5.70;;;23.70;24.20;;;;;;2263682;61;20425;-64
2024/03/22 04:09:00;0.00;0.00;0.62;0.00;0.00;0.62;7.10;6.40;;;23.70;24.20;;;;;;2263399;61;20799;-64
2024/03/22 04:11:26;0.00;0.00;0.62;0.00;0.00;0.62;7.93;6.17;;;23.70;24.20;;;;;;2263421;61;20357;-64
2024/03/22 04:13:52;0.00;0.00;0.62;0.00;0.00;0.62;7.47;6.03;;;23.70;24.20;;;;;;2263452;61;20452;-64
2024/03/22 04:16:19;0.00;0.00;0.62;0.00;0.00;0.62;6.50;5.90;;;23.70;24.20;;;;;;2263253;61;20672;-64
2024/03/22 04:18:45;0.00;0.00;0.62;0.00;0.00;0.62;6.20;5.60;;;23.70;24.20;;;;;;2263623;61;20355;-64
2024/03/22 04:21:11;0.00;0.00;0.62;0.00;0.00;0.62;6.17;5.10;;;23.70;24.20;;;;;;2263848;61;20360;-64
2024/03/22 04:23:38;0.00;0.00;0.62;0.00;0.00;0.62;5.73;5.13;;;23.70;24.20;;;;;;2263322;61;20402;-64
2024/03/22 04:26:05;0.00;0.00;0.62;0.00;0.00;0.62;6.50;5.70;;;23.70;24.20;;;;;;2263469;61;20403;-64
2024/03/22 04:28:31;0.00;0.00;0.62;0.00;0.00;0.62;5.73;5.13;;;23.70;24.20;;;;;;2263539;61;20859;-64
2024/03/22 04:31:01;0.00;0.00;0.62;0.00;0.00;0.62;7.67;6.20;;;23.70;24.20;;;;;;2263233;61;20360;-64
2024/03/22 04:33:28;0.00;0.00;0.62;0.00;0.00;0.62;7.20;6.50;;;23.70;24.20;;;;;;2259602;61;20357;-64
2024/03/22 04:35:54;0.00;0.00;0.62;0.00;0.00;0.62;7.00;6.27;;;23.70;24.20;;;;;;2263463;61;20465;-64
2024/03/22 04:38:21;0.00;0.00;0.62;0.00;0.00;0.62;7.00;5.57;;;23.70;24.20;;;;;;2259421;61;20349;-64
2024/03/22 04:40:48;0.00;0.00;0.62;0.00;0.00;0.62;7.43;6.17;;;23.70;24.30;;;;;;2263531;61;20399;-64
2024/03/22 04:43:16;0.00;0.00;0.62;0.00;0.00;0.62;7.47;6.33;;;23.70;24.20;;;;;;2263422;61;20361;-64
2024/03/22 04:45:43;0.00;0.00;0.62;0.00;0.00;0.62;6.90;6.03;;;23.70;24.30;;;;;;2263097;61;20785;-64
2024/03/22 04:48:09;0.00;0.00;0.62;0.00;0.00;0.62;6.90;5.57;;;23.70;24.30;;;;;;2259513;61;20969;-64
2024/03/22 04:50:35;0.00;0.00;0.62;0.00;0.00;0.62;6.53;5.67;;;23.70;24.30;;;;;;2263142;61;20800;-64
2024/03/22 04:53:01;0.00;0.00;0.62;0.00;0.00;0.62;6.60;5.90;;;23.70;24.30;;;;;;2263222;61;20344;-64
2024/03/22 04:55:28;0.00;0.00;0.62;0.00;0.00;0.62;7.00;6.03;;;23.70;24.30;;;;;;2263564;61;20408;-64
2024/03/22 04:57:55;0.00;0.00;0.62;0.00;0.00;0.62;7.13;6.40;;;23.70;24.30;;;;;;2263297;61;20421;-64
2024/03/22 05:00:21;0.00;0.00;0.62;0.00;0.00;0.62;7.80;6.83;;;23.70;24.30;;;;;;2263416;61;20385;-64
2024/03/22 05:02:47;0.00;0.00;0.62;0.00;0.00;0.62;8.43;7.20;;;23.60;24.30;;;;;;2262685;61;20773;-64
2024/03/22 05:05:14;0.00;0.00;0.62;0.00;0.00;0.62;9.17;7.43;;;23.70;24.30;;;;;;2259440;61;20469;-64
2024/03/22 05:07:40;0.00;0.00;0.62;0.00;0.00;0.62;8.20;6.73;;;23.60;24.30;;;;;;2262907;61;20376;-64
2024/03/22 05:10:08;0.00;0.00;0.62;0.00;0.00;0.62;7.80;6.93;;;23.70;24.40;;;;;;2263265;61;20350;-64
2024/03/22 05:12:35;0.00;0.00;0.62;0.00;0.00;0.62;7.90;7.10;;;23.70;24.30;;;;;;2263242;61;20353;-64
2024/03/22 05:15:03;0.00;0.00;0.62;0.00;0.00;0.62;8.10;6.50;;;23.70;24.30;;;;;;2263440;61;20365;-64
2024/03/22 05:17:31;0.00;0.00;0.62;0.00;0.00;0.62;7.50;6.70;;;23.60;24.30;;;;;;2263384;61;20389;-64
2024/03/22 05:19:57;0.00;0.00;0.62;0.00;0.00;0.62;8.00;7.13;;;23.60;24.30;;;;;;2263309;61;20883;-64
2024/03/22 05:22:24;0.00;0.00;0.62;0.00;0.00;0.62;10.33;8.23;;;23.60;24.30;;;;;;2263148;61;20357;-64
2024/03/22 05:24:50;0.00;0.00;0.62;0.00;0.00;0.62;10.63;6.83;;;23.60;24.30;;;;;;2263359;61;20424;-64
2024/03/22 05:27:17;0.00;0.00;0.62;0.00;0.00;0.62;9.90;8.00;;;23.70;24.40;;;;;;2263536;61;20426;-64
2024/03/22 05:29:43;0.00;0.00;0.62;0.00;0.00;0.62;11.20;9.20;;;23.60;24.30;;;;;;2263140;61;20891;-64
2024/03/22 05:32:11;0.00;0.00;0.62;0.00;0.00;0.62;9.27;7.70;;;23.60;24.30;;;;;;2263210;61;20767;-64
2024/03/22 05:34:37;0.00;0.00;0.62;0.00;0.00;0.62;9.73;8.50;;;23.70;24.40;;;;;;2263283;61;20886;-64
2024/03/22 05:37:04;0.00;0.00;0.62;0.00;0.00;0.62;10.53;8.70;;;23.60;24.40;;;;;;2263089;61;20376;-64
2024/03/22 05:39:30;0.00;0.00;0.62;0.00;0.00;0.62;10.47;9.37;;;23.60;24.40;;;;;;2263176;61;20452;-64
2024/03/22 05:41:56;0.00;0.00;0.62;0.00;0.00;0.62;11.50;10.27;;;23.60;24.40;;;;;;2263318;61;20355;-64
2024/03/22 05:44:22;0.00;0.00;0.62;0.00;0.00;0.62;11.63;10.00;;;23.60;24.40;;;;;;2263239;61;20349;-64
2024/03/22 05:46:48;0.00;0.00;0.62;0.00;0.00;0.62;10.30;9.20;;;23.60;24.40;;;;;;2263192;61;20441;-64
2024/03/22 05:49:16;0.00;0.00;0.62;0.00;0.00;0.62;11.27;9.63;;;23.60;24.40;;;;;;2263533;61;20357;-64
2024/03/22 05:51:42;0.00;0.00;0.62;0.00;0.00;0.62;12.50;10.27;;;23.60;24.40;;;;;;2263000;61;20422;-64
2024/03/22 05:54:09;0.00;0.00;0.62;0.00;0.00;0.62;11.20;10.00;;;23.60;24.40;;;;;;2263251;61;20354;-64
2024/03/22 05:56:35;0.00;0.00;0.62;0.00;0.00;0.62;11.60;10.43;;;23.60;24.40;;;;;;2263504;61;20361;-64
2024/03/22 05:59:01;0.00;0.00;0.62;0.00;0.00;0.62;12.27;10.93;;;23.60;24.40;;;;;;2262975;61;20380;-64
2024/03/22 06:01:28;0.00;0.00;0.62;0.00;0.00;0.62;12.10;10.53;;;23.60;24.40;;;;;;2262856;61;20878;-64
2024/03/22 06:03:54;0.00;0.00;0.62;0.00;0.00;0.62;12.37;11.07;;;23.60;24.40;;;;;;2259469;61;20367;-64
2024/03/22 06:06:25;0.00;0.00;0.62;0.00;0.00;0.62;12.20;10.60;;;23.60;24.40;;;;;;2263443;61;20421;-64
2024/03/22 06:08:53;0.00;0.00;0.62;0.00;0.00;0.62;12.43;11.13;;;23.60;24.50;;;;;;2263179;61;20795;-64
2024/03/22 06:11:20;0.00;0.00;0.62;0.00;0.00;0.62;12.70;11.40;;;23.60;24.50;;;;;;2263297;61;20959;-64
2024/03/22 06:13:46;0.00;0.00;0.62;0.00;0.00;0.62;12.43;10.23;;;23.60;24.50;;;;;;2263034;61;20882;-64
2024/03/22 06:16:13;0.00;0.00;0.62;0.00;0.00;0.62;12.37;10.33;;;23.60;24.50;;;;;;2263220;61;20446;-64
2024/03/22 06:18:39;0.00;0.00;0.62;0.00;0.00;0.62;15.40;11.90;;;23.60;24.50;;;;;;2263551;61;20423;-64
2024/03/22 06:21:05;0.00;0.00;0.62;0.00;0.00;0.62;12.93;11.57;;;23.60;24.50;;;;;;2262995;61;20349;-64
2024/03/22 06:23:34;0.00;0.00;0.62;0.00;0.00;0.62;13.20;10.90;;;23.60;24.50;;;;;;2263033;61;20353;-64
2024/03/22 06:26:00;0.00;0.00;0.62;0.00;0.00;0.62;12.93;11.53;;;23.60;24.50;;;;;;2264116;61;20384;-64
2024/03/22 06:28:29;0.00;0.00;0.62;0.00;0.00;0.62;13.80;11.50;;;23.60;24.60;;;;;;2263411;61;20451;-64
2024/03/22 06:30:55;0.00;0.00;0.62;0.00;0.00;0.62;12.23;10.80;;;23.60;24.60;;;;;;2263910;61;20353;-64
2024/03/22 06:33:21;0.00;0.00;0.62;0.00;0.00;0.62;13.00;11.60;;;23.60;24.60;;;;;;2264093;61;20357;-64
2024/03/22 06:35:48;0.00;0.00;0.62;0.00;0.00;0.62;12.53;10.60;;;23.60;24.60;;;;;;2263413;61;20364;-64
2024/03/22 06:38:14;0.00;0.00;0.62;0.00;0.00;0.62;12.73;10.90;;;23.60;24.60;;;;;;2260047;61;20364;-64
2024/03/22 06:40:42;0.00;0.00;0.62;0.00;0.00;0.62;11.97;10.60;;;23.60;24.60;;;;;;2260200;61;20349;-64
2024/03/22 06:43:08;0.00;0.00;0.62;0.00;0.00;0.62;11.57;10.37;;;23.60;25.10;;;;;;2263468;61;20966;-64
2024/03/22 06:45:35;0.00;0.00;0.62;0.00;0.00;0.62;11.20;9.97;;;23.60;24.60;;;;;;2263782;61;20392;-64
2024/03/22 06:48:01;0.00;0.00;0.62;0.00;0.00;0.62;11.53;10.30;;;23.60;24.60;;;;;;2263938;61;20453;-64
2024/03/22 06:50:27;0.00;0.00;0.62;0.00;0.00;0.62;12.17;10.40;;;23.60;24.60;;;;;;2259801;61;20360;-64
2024/03/22 06:52:53;0.00;0.00;0.62;0.00;0.00;0.62;12.67;10.40;;;23.60;24.60;;;;;;2264029;61;20874;-64
2024/03/22 06:55:20;0.00;0.00;0.62;0.00;0.00;0.62;12.73;10.50;;;23.60;24.60;;;;;;2260892;61;20349;-64
2024/03/22 06:57:48;0.00;0.00;0.62;0.00;0.00;0.62;11.53;10.13;;;23.60;24.60;;;;;;2264010;61;20365;-64
2024/03/22 07:00:15;0.00;0.00;0.62;0.00;0.00;0.62;10.00;9.00;;;23.60;24.60;;;;;;2264264;61;20479;-64
2024/03/22 07:02:42;0.00;0.00;0.62;0.00;0.00;0.62;11.17;9.53;;;23.60;24.60;;;;;;2263789;61;20402;-65
2024/03/22 07:05:09;0.00;0.00;0.62;0.00;0.00;0.62;11.50;9.73;;;23.60;24.60;;;;;;2263921;61;20428;-64
2024/03/22 07:07:36;0.00;0.00;0.62;0.00;0.00;0.62;11.57;9.27;;;23.60;24.60;;;;;;2264107;61;20757;-66
2024/03/22 07:10:05;0.00;0.00;0.62;0.00;0.00;0.62;12.30;8.90;;;23.60;24.60;;;;;;2264755;61;20357;-64
2024/03/22 07:12:31;0.00;0.00;0.62;0.00;0.00;0.62;10.83;9.40;;;23.60;24.60;;;;;;2264105;61;20558;-64
2024/03/22 07:15:00;0.00;0.00;0.62;0.00;0.00;0.62;11.00;9.80;;;23.60;24.60;;;;;;2264614;61;20365;-64
2024/03/22 07:17:26;0.00;0.00;0.62;0.00;0.00;0.62;10.83;9.00;;;23.60;24.70;;;;;;2264276;61;20914;-63
2024/03/22 07:19:53;0.00;0.00;0.62;0.00;0.00;0.62;12.93;9.83;;;23.60;24.70;;;;;;2264005;61;20357;-64
2024/03/22 07:22:19;0.00;0.00;0.62;0.00;0.00;0.62;10.80;9.70;;;23.60;24.70;;;;;;2264037;61;20393;-65
2024/03/22 07:24:47;0.00;0.00;0.62;0.00;0.00;0.62;11.03;9.20;;;23.60;24.70;;;;;;2264195;61;20396;-64
2024/03/22 07:27:15;0.00;0.00;0.62;0.00;0.00;0.62;11.83;9.30;;;23.60;24.70;;;;;;2263581;61;20381;-65
2024/03/22 07:29:41;0.00;0.00;0.62;0.00;0.00;0.62;13.67;9.43;;;23.60;24.70;;;;;;2264056;61;20358;-64
2024/03/22 07:32:09;0.00;0.00;0.62;0.00;0.00;0.62;11.93;9.87;;;23.60;24.70;;;;;;2264126;61;20406;-66
2024/03/22 07:34:35;0.00;0.00;0.62;0.00;0.00;0.62;10.47;8.80;;;23.60;24.70;;;;;;2263832;61;20367;-65
2024/03/22 07:37:01;0.00;0.00;0.62;0.00;0.00;0.62;10.50;8.83;;;23.60;24.80;;;;;;2264027;61;20373;-64
2024/03/22 07:39:27;0.00;0.00;0.62;0.00;0.00;0.62;11.30;9.30;;;23.60;24.70;;;;;;2264181;61;20349;-65
2024/03/22 07:41:53;0.00;0.00;0.62;0.00;0.00;0.62;11.03;7.80;;;23.70;24.80;;;;;;2263717;61;20929;-65
2024/03/22 07:44:20;0.00;0.00;0.62;0.00;0.00;0.62;10.97;8.67;;;23.60;24.80;;;;;;2264212;61;20355;-64
2024/03/22 07:46:46;0.00;0.00;0.62;0.00;0.00;0.62;9.87;8.47;;;23.60;24.80;;;;;;2263991;61;20400;-64
2024/03/22 07:49:14;0.00;0.00;0.62;0.00;0.00;0.62;9.30;8.17;;;23.60;24.80;;;;;;2263580;61;20364;-68
2024/03/22 07:51:40;0.00;0.00;0.62;0.00;0.00;0.62;9.70;8.43;;;23.60;24.80;;;;;;2263672;61;20911;-64
2024/03/22 07:54:06;0.00;0.00;0.62;0.00;0.00;0.62;8.77;7.80;;;23.70;24.90;;;;;;2260431;61;20890;-64
2024/03/22 07:56:32;0.00;0.00;0.62;0.00;0.00;0.62;9.90;8.57;;;23.60;24.80;;;;;;2263657;61;20373;-63
2024/03/22 07:58:59;0.00;0.00;0.62;0.00;0.00;0.62;10.47;7.47;;;23.60;24.80;;;;;;2264112;61;20364;-61
2024/03/22 08:01:25;0.00;0.00;0.62;0.00;0.00;0.62;10.23;7.87;;;23.60;24.80;;;;;;2264980;61;20350;-63
2024/03/22 08:03:52;0.00;0.00;0.62;0.00;0.00;0.62;8.40;6.43;;;23.60;24.80;;;;;;2263533;61;20438;-63
2024/03/22 08:06:19;0.00;0.00;0.62;0.00;0.00;0.62;9.17;7.63;;;23.60;24.80;;;;;;2263896;61;20389;-64
2024/03/22 08:08:46;0.00;0.00;0.62;0.00;0.00;0.62;8.13;7.00;;;23.60;24.90;;;;;;2264006;61;20357;-63
2024/03/22 08:11:12;0.00;0.00;0.62;0.00;0.00;0.62;8.33;6.80;;;23.60;24.90;;;;;;2264127;61;20356;-63
2024/03/22 08:13:39;0.00;0.00;0.62;0.00;0.00;0.62;8.47;7.13;;;23.60;24.90;;;;;;2263667;61;20372;-62
2024/03/22 08:16:05;0.00;0.00;0.62;0.00;0.00;0.62;9.00;7.23;;;23.70;24.90;;;;;;2263929;61;20399;-65
2024/03/22 08:18:32;0.00;0.00;0.62;0.00;0.00;0.62;8.37;6.63;;;23.60;24.90;;;;;;2263805;61;20450;-66
2024/03/22 08:20:59;0.00;0.00;0.62;0.00;0.00;0.62;9.47;6.60;;;23.60;24.90;;;;;;2263513;61;20357;-65
2024/03/22 08:23:26;0.00;0.00;0.62;0.00;0.00;0.62;7.10;6.33;;;23.70;24.90;;;;;;2263824;61;20358;-66
2024/03/22 08:25:52;0.00;0.00;0.62;0.00;0.00;0.62;9.80;6.87;;;23.60;24.90;;;;;;2263218;61;20825;-65
2024/03/22 08:28:19;0.00;0.00;0.62;0.00;0.00;0.62;7.83;6.43;;;23.70;25.00;;;;;;2263667;61;20889;-66
2024/03/22 08:30:45;0.00;0.00;0.62;0.00;0.00;0.62;9.20;6.83;;;23.70;25.00;;;;;;2263617;61;20452;-65
2024/03/22 08:33:11;0.00;0.00;0.62;0.00;0.00;0.62;8.13;6.00;;;23.60;24.90;;;;;;2263526;61;20384;-64
2024/03/22 08:35:38;0.00;0.00;0.62;0.00;0.00;0.62;7.93;6.20;;;23.60;24.90;;;;;;2263517;61;20333;-65
2024/03/22 08:38:09;0.00;0.00;0.62;0.00;0.00;0.62;7.20;6.50;;;23.60;24.90;;;;;;2263799;61;20962;-65
2024/03/22 08:40:37;0.00;0.00;0.62;0.00;0.00;0.62;6.97;5.60;;;23.60;25.50;;;;;;2263786;61;20353;-64
2024/03/22 08:43:04;0.00;0.00;0.62;0.00;0.00;0.62;7.67;6.10;;;23.70;25.00;;;;;;2263328;61;20357;-65
2024/03/22 08:45:31;0.00;0.00;0.62;0.00;0.00;0.62;7.40;5.60;;;23.70;25.00;;;;;;2259799;61;20467;-65
2024/03/22 08:47:57;0.00;0.00;0.62;0.00;0.00;0.62;6.70;5.60;;;23.60;25.00;;;;;;2263426;61;20365;-65
2024/03/22 08:50:23;0.00;0.00;0.62;0.00;0.00;0.62;7.23;5.80;;;23.60;25.00;;;;;;2263360;61;20449;-65
2024/03/22 08:52:49;0.00;0.00;0.62;0.00;0.00;0.62;10.20;7.07;;;23.60;25.00;;;;;;2263658;61;20413;-65
2024/03/22 08:55:15;0.00;0.00;0.62;0.00;0.00;0.62;7.30;4.97;;;23.70;25.10;;;;;;2263493;61;20349;-65
2024/03/22 08:57:43;0.00;0.00;0.62;0.00;0.00;0.62;7.03;5.97;;;23.60;25.00;;;;;;2263650;61;20723;-66
2024/03/22 09:00:11;0.00;0.00;0.62;0.00;0.00;0.62;6.80;5.20;;;23.70;25.10;;;;;;2263659;61;20357;-65
2024/03/22 09:02:38;0.00;0.00;0.62;0.00;0.00;0.62;7.03;5.33;;;23.70;25.10;;;;;;2262905;61;20353;-66
2024/03/22 09:05:05;0.00;0.00;0.62;0.00;0.00;0.62;6.73;5.30;;;23.70;25.10;;;;;;2263513;61;20377;-64
2024/03/22 09:07:32;0.00;0.00;0.62;0.00;0.00;0.62;6.70;5.27;;;23.70;25.10;;;;;;2263600;61;20974;-65
2024/03/22 09:09:58;0.00;0.00;0.62;0.00;0.00;0.62;5.90;5.10;;;23.70;25.10;;;;;;2263751;61;20352;-65
2024/03/22 09:12:24;0.00;0.00;0.62;0.00;0.00;0.62;6.83;5.40;;;23.70;25.10;;;;;;2263581;61;20361;-65
2024/03/22 09:14:52;0.00;0.00;0.62;0.00;0.00;0.62;7.13;5.00;;;23.70;25.30;;;;;;2263564;61;20407;-65
2024/03/22 09:17:18;0.00;0.00;0.62;0.00;0.00;0.62;6.30;5.10;;;23.70;25.20;;;;;;2263587;61;20388;-65
2024/03/22 09:19:44;0.00;0.00;0.62;0.00;0.00;0.62;7.70;5.50;;;23.70;25.20;;;;;;2263190;61;20765;-65
2024/03/22 09:22:10;0.00;0.00;0.62;0.00;0.00;0.62;6.03;4.73;;;23.70;25.20;;;;;;2263290;61;20887;-65
2024/03/22 09:24:37;0.00;0.00;0.62;0.00;0.00;0.62;7.90;4.50;;;23.70;25.20;;;;;;2263459;61;20747;-65
2024/03/22 09:27:08;0.00;0.00;0.62;0.00;0.00;0.62;6.03;4.33;;;23.70;25.20;;;;;;2263155;61;20385;-65
2024/03/22 09:29:35;0.00;0.00;0.62;0.00;0.00;0.62;5.73;4.43;;;23.70;25.20;;;;;;2263437;61;20349;-65
2024/03/22 09:32:03;0.00;0.00;0.62;0.00;0.00;0.62;4.30;3.77;;;23.70;25.20;;;;;;2263254;61;20353;-65
2024/03/22 09:34:29;0.00;0.00;0.62;0.00;0.00;0.62;6.03;4.70;;;23.70;25.20;;;;;;2263309;61;20455;-65
2024/03/22 09:36:56;0.00;0.00;0.62;0.00;0.00;0.62;6.97;4.60;;;23.70;25.20;;;;;;2263580;61;20365;-65
2024/03/22 09:39:22;0.00;0.00;0.62;0.00;0.00;0.62;10.73;5.00;;;23.70;25.20;;;;;;2263132;61;20603;-65